createdAt,value
2023-03-18T00:02:02.303Z,9.02
2023-03-18T00:04:31.478Z,8.75
2023-03-18T00:07:01.687Z,17.88
2023-03-18T00:09:30.489Z,8.13
2023-03-18T00:11:59.219Z,7.85
2023-03-18T00:14:27.958Z,8.57
2023-03-18T00:16:56.246Z,9.35
2023-03-18T00:19:25.170Z,7.05
2023-03-18T00:21:53.370Z,10.00
2023-03-18T00:24:23.011Z,7.72
2023-03-18T00:26:51.781Z,9.27
2023-03-18T00:29:20.077Z,7.63
2023-03-18T00:31:48.411Z,7.82
2023-03-18T00:34:17.346Z,9.00
2023-03-18T00:36:48.940Z,7.60
2023-03-18T00:39:18.576Z,8.65
2023-03-18T00:41:48.523Z,7.63
2023-03-18T00:44:16.922Z,8.07
2023-03-18T00:46:46.153Z,10.43
2023-03-18T00:49:15.413Z,9.02
2023-03-18T00:51:44.630Z,9.70
2023-03-18T00:54:18.190Z,9.75
2023-03-18T00:56:47.870Z,12.10
2023-03-18T00:59:16.372Z,8.30
2023-03-18T01:01:45.672Z,13.13
2023-03-18T01:04:13.993Z,8.68
2023-03-18T01:06:42.390Z,11.07
2023-03-18T01:09:11.745Z,6.18
2023-03-18T01:11:41.225Z,9.35
2023-03-18T01:14:10.816Z,6.82
2023-03-18T01:16:39.472Z,7.53
2023-03-18T01:19:08.257Z,7.85
2023-03-18T01:21:37.573Z,7.72
2023-03-18T01:24:07.069Z,9.88
2023-03-18T01:26:37.370Z,7.47
2023-03-18T01:29:06.231Z,7.50
2023-03-18T01:31:36.495Z,7.32
2023-03-18T01:34:09.812Z,9.05
2023-03-18T01:36:46.476Z,11.38
2023-03-18T01:39:17.420Z,8.73
2023-03-18T01:41:46.274Z,8.88
2023-03-18T01:44:22.564Z,7.55
2023-03-18T01:46:55.382Z,7.38
2023-03-18T01:49:30.625Z,6.82
2023-03-18T01:52:05.254Z,7.97
2023-03-18T01:54:40.994Z,7.63
2023-03-18T01:57:09.327Z,8.35
2023-03-18T01:59:42.829Z,8.85
2023-03-18T02:02:16.063Z,8.85
2023-03-18T02:04:49.075Z,7.95
2023-03-18T02:07:21.533Z,7.60
2023-03-18T02:09:52.058Z,5.35
2023-03-18T02:12:25.906Z,8.85
2023-03-18T02:14:59.914Z,5.80
2023-03-18T02:17:35.291Z,7.95
2023-03-18T02:20:18.647Z,10.05
2023-03-18T02:22:53.400Z,8.45
2023-03-18T02:25:37.950Z,7.45
2023-03-18T02:28:14.736Z,6.45
2023-03-18T02:30:48.502Z,6.63
2023-03-18T02:33:20.639Z,6.90
2023-03-18T02:35:55.430Z,5.93
2023-03-18T02:38:24.168Z,7.50
2023-03-18T02:40:52.838Z,9.30
2023-03-18T02:43:28.967Z,7.75
2023-03-18T02:46:27.730Z,11.32
2023-03-18T02:48:57.420Z,4.85
2023-03-18T02:51:26.278Z,8.93
2023-03-18T02:54:02.156Z,7.35
2023-03-18T02:56:30.990Z,8.35
2023-03-18T02:59:01.240Z,6.70
2023-03-18T03:01:30.359Z,5.10
2023-03-18T03:03:59.356Z,7.90
2023-03-18T03:06:27.707Z,5.03
2023-03-18T03:08:57.200Z,10.43
2023-03-18T03:11:26.740Z,6.20
2023-03-18T03:14:00.218Z,6.50
2023-03-18T03:16:29.835Z,8.65
2023-03-18T03:18:59.770Z,6.65
2023-03-18T03:21:29.200Z,6.20
2023-03-18T03:23:59.372Z,8.18
2023-03-18T03:26:27.724Z,7.20
2023-03-18T03:28:56.746Z,6.88
2023-03-18T03:31:27.297Z,7.97
2023-03-18T03:33:55.670Z,9.15
2023-03-18T03:36:24.059Z,7.13
2023-03-18T03:38:52.425Z,7.15
2023-03-18T03:41:20.865Z,10.13
2023-03-18T03:43:50.980Z,8.57
2023-03-18T03:46:19.486Z,8.60
2023-03-18T03:48:49.788Z,6.47
2023-03-18T03:51:18.410Z,8.48
2023-03-18T03:53:47.073Z,8.23
2023-03-18T03:56:16.316Z,6.55
2023-03-18T03:58:44.740Z,9.43
2023-03-18T04:01:13.620Z,7.50
2023-03-18T04:03:42.906Z,11.32
2023-03-18T04:06:13.423Z,8.02
2023-03-18T04:08:48.796Z,6.72
2023-03-18T04:11:17.163Z,10.10
2023-03-18T04:13:45.633Z,10.75
2023-03-18T04:16:14.421Z,10.02
2023-03-18T04:18:42.881Z,9.55
2023-03-18T04:21:12.849Z,8.52
2023-03-18T04:23:46.465Z,10.77
2023-03-18T04:26:14.963Z,10.63
2023-03-18T04:28:43.664Z,9.25
2023-03-18T04:31:16.523Z,10.20
2023-03-18T04:33:45.706Z,12.90
2023-03-18T04:36:15.638Z,11.00
2023-03-18T04:38:44.562Z,14.32
2023-03-18T04:41:12.915Z,12.23
2023-03-18T04:43:41.531Z,17.52
2023-03-18T04:46:12.031Z,11.88
2023-03-18T04:48:40.899Z,13.88
2023-03-18T04:51:12.483Z,13.73
2023-03-18T04:53:43.167Z,13.80
2023-03-18T04:56:12.570Z,12.18
2023-03-18T04:58:49.550Z,16.38
2023-03-18T05:01:21.992Z,20.02
2023-03-18T05:03:50.365Z,11.98
2023-03-18T05:06:26.804Z,13.30
2023-03-18T05:09:00.213Z,12.13
2023-03-18T05:11:34.139Z,14.90
2023-03-18T05:14:11.069Z,14.35
2023-03-18T05:16:44.521Z,13.50
2023-03-18T05:19:13.932Z,14.85
2023-03-18T05:21:50.167Z,16.77
2023-03-18T05:24:21.944Z,12.20
2023-03-18T05:26:50.298Z,11.93
2023-03-18T05:29:20.658Z,18.08
2023-03-18T05:31:58.655Z,16.63
2023-03-18T05:34:28.507Z,15.25
2023-03-18T05:36:57.821Z,16.08
2023-03-18T05:39:29.095Z,15.65
2023-03-18T05:41:57.566Z,17.10
2023-03-18T05:44:29.907Z,21.38
2023-03-18T05:47:01.801Z,14.98
2023-03-18T05:49:45.579Z,15.38
2023-03-18T05:52:19.482Z,14.88
2023-03-18T05:54:51.045Z,13.77
2023-03-18T05:57:26.312Z,16.85
2023-03-18T06:00:00.796Z,15.63
2023-03-18T06:02:32.780Z,14.73
2023-03-18T06:05:01.499Z,17.45
2023-03-18T06:07:30.481Z,17.13
2023-03-18T06:10:02.693Z,17.75
2023-03-18T06:12:31.154Z,16.35
2023-03-18T06:14:59.890Z,18.30
2023-03-18T06:17:28.615Z,17.27
2023-03-18T06:19:57.061Z,15.85
2023-03-18T06:22:25.886Z,17.70
2023-03-18T06:24:54.632Z,14.93
2023-03-18T06:27:25.054Z,18.70
2023-03-18T06:29:57.516Z,15.18
2023-03-18T06:32:28.019Z,15.52
2023-03-18T06:34:56.652Z,19.20
2023-03-18T06:37:25.607Z,18.27
2023-03-18T06:39:54.227Z,15.65
2023-03-18T06:42:23.995Z,14.73
2023-03-18T06:45:02.164Z,15.93
2023-03-18T06:47:42.923Z,17.58
2023-03-18T06:50:13.478Z,15.70
2023-03-18T06:52:43.496Z,19.88
2023-03-18T06:55:15.101Z,17.02
2023-03-18T06:57:47.696Z,16.75
2023-03-18T07:00:21.775Z,16.73
2023-03-18T07:02:50.410Z,18.95
2023-03-18T07:05:20.680Z,18.25
2023-03-18T07:07:49.509Z,18.45
2023-03-18T07:10:22.936Z,17.98
2023-03-18T07:12:54.859Z,15.57
2023-03-18T07:15:26.144Z,15.20
2023-03-18T07:18:00.370Z,21.45
2023-03-18T07:20:29.751Z,15.13
2023-03-18T07:22:58.106Z,21.85
2023-03-18T07:25:26.603Z,17.08
2023-03-18T07:27:56.596Z,18.17
2023-03-18T07:30:25.947Z,16.55
2023-03-18T07:32:55.531Z,17.45
2023-03-18T07:35:24.219Z,16.45
2023-03-18T07:37:53.045Z,18.25
2023-03-18T07:40:21.666Z,16.20
2023-03-18T07:42:51.542Z,19.23
2023-03-18T07:45:21.358Z,18.63
2023-03-18T07:47:49.698Z,22.15
2023-03-18T07:50:18.431Z,15.85
2023-03-18T07:52:47.045Z,18.00
2023-03-18T07:55:16.005Z,18.05
2023-03-18T07:57:44.328Z,18.42
2023-03-18T08:00:15.157Z,19.20
2023-03-18T08:02:45.056Z,18.48
2023-03-18T08:05:13.604Z,21.52
2023-03-18T08:07:42.629Z,18.17
2023-03-18T08:10:13.003Z,19.48
2023-03-18T08:12:52.633Z,19.23
2023-03-18T08:15:23.377Z,25.23
2023-03-18T08:17:56.036Z,18.30
2023-03-18T08:20:27.197Z,20.25
2023-03-18T08:22:59.239Z,16.88
2023-03-18T08:25:30.461Z,18.23
2023-03-18T08:27:59.680Z,15.75
2023-03-18T08:30:28.830Z,17.08
2023-03-18T08:32:58.758Z,20.33
2023-03-18T08:35:27.555Z,17.27
2023-03-18T08:37:57.030Z,19.05
2023-03-18T08:40:26.008Z,19.23
2023-03-18T08:42:54.533Z,15.93
2023-03-18T08:45:22.961Z,17.52
2023-03-18T08:47:51.376Z,17.45
2023-03-18T08:50:21.445Z,17.35
2023-03-18T08:52:50.460Z,20.83
2023-03-18T08:55:21.323Z,20.58
2023-03-18T08:57:50.024Z,25.75
2023-03-18T09:00:21.281Z,17.75
2023-03-18T09:02:50.043Z,17.55
2023-03-18T09:05:20.559Z,23.60
2023-03-18T09:07:49.180Z,24.52
2023-03-18T09:10:18.379Z,17.45
2023-03-18T09:12:47.685Z,19.42
2023-03-18T09:15:17.021Z,23.38
2023-03-18T09:18:00.098Z,18.25
2023-03-18T09:20:33.774Z,18.85
2023-03-18T09:23:02.770Z,20.52
2023-03-18T09:25:31.353Z,16.92
2023-03-18T09:28:00.916Z,23.20
2023-03-18T09:30:30.141Z,19.88
2023-03-18T09:32:59.319Z,24.05
2023-03-18T09:35:29.090Z,18.65
2023-03-18T09:37:58.853Z,20.80
2023-03-18T09:40:30.583Z,25.73
2023-03-18T09:43:15.883Z,22.20
2023-03-18T09:46:00.123Z,18.98
2023-03-18T09:49:06.326Z,23.25
2023-03-18T09:51:50.473Z,18.90
2023-03-18T09:54:30.591Z,25.17
2023-03-18T09:57:00.300Z,20.67
2023-03-18T09:59:40.109Z,21.25
2023-03-18T10:02:22.475Z,19.92
2023-03-18T10:04:56.206Z,23.67
2023-03-18T10:07:32.500Z,19.50
2023-03-18T10:10:09.432Z,20.45
2023-03-18T10:12:45.525Z,22.17
2023-03-18T10:15:22.479Z,19.67
2023-03-18T10:17:59.650Z,18.40
2023-03-18T10:20:40.468Z,19.30
2023-03-18T10:23:25.838Z,19.35
2023-03-18T10:26:01.783Z,17.08
2023-03-18T10:29:09.469Z,15.13
2023-03-18T10:31:54.336Z,18.15
2023-03-18T10:34:32.248Z,19.85
2023-03-18T10:37:12.961Z,19.45
2023-03-18T10:39:45.724Z,14.88
2023-03-18T10:42:23.170Z,15.65
2023-03-18T10:44:52.904Z,17.50
2023-03-18T10:47:29.066Z,16.17
2023-03-18T10:50:11.006Z,16.83
2023-03-18T10:52:51.538Z,24.55
2023-03-18T10:55:28.078Z,15.80
2023-03-18T10:57:58.080Z,15.15
2023-03-18T11:00:33.024Z,13.73
2023-03-18T11:03:02.608Z,14.15
2023-03-18T11:05:36.246Z,18.00
2023-03-18T11:08:08.860Z,14.48
2023-03-18T11:10:45.792Z,18.02
2023-03-18T11:13:19.079Z,16.08
2023-03-18T11:15:51.311Z,17.08
2023-03-18T11:18:24.607Z,16.92
2023-03-18T11:21:00.687Z,16.40
2023-03-18T11:23:46.233Z,17.27
2023-03-18T11:26:23.287Z,15.98
2023-03-18T11:28:58.662Z,14.40
2023-03-18T11:31:27.931Z,19.00
2023-03-18T11:34:00.839Z,16.75
2023-03-18T11:36:32.442Z,12.85
2023-03-18T11:39:07.180Z,16.73
2023-03-18T11:41:40.869Z,16.92
2023-03-18T11:44:21.035Z,17.63
2023-03-18T11:46:56.346Z,15.63
2023-03-18T11:49:28.773Z,16.05
2023-03-18T11:52:19.880Z,16.92
2023-03-18T11:55:23.479Z,15.57
2023-03-18T11:58:46.623Z,17.25
2023-03-18T12:01:28.456Z,18.15
2023-03-18T12:04:30.725Z,15.05
2023-03-18T12:07:24.534Z,13.40
2023-03-18T12:10:07.908Z,12.88
2023-03-18T12:12:59.848Z,16.45
2023-03-18T12:15:45.113Z,15.00
2023-03-18T12:18:42.783Z,13.80
2023-03-18T12:21:44.598Z,12.32
2023-03-18T12:24:39.387Z,16.90
2023-03-18T12:27:20.074Z,13.18
2023-03-18T12:30:14.419Z,13.95
2023-03-18T12:32:50.733Z,14.88
2023-03-18T12:35:42.645Z,14.02
2023-03-18T12:38:43.888Z,14.45
2023-03-18T12:41:21.500Z,11.95
2023-03-18T12:44:13.559Z,14.43
2023-03-18T12:46:48.778Z,9.88
2023-03-18T12:49:24.097Z,11.32
2023-03-18T12:52:03.431Z,12.43
2023-03-18T12:54:39.390Z,11.13
2023-03-18T12:57:15.467Z,10.70
2023-03-18T12:59:53.293Z,8.90
2023-03-18T13:02:41.321Z,12.57
2023-03-18T13:05:27.448Z,11.25
2023-03-18T13:08:22.511Z,10.82
2023-03-18T13:11:05.822Z,14.52
2023-03-18T13:13:39.874Z,11.73
2023-03-18T13:16:09.039Z,12.35
2023-03-18T13:18:43.903Z,12.77
2023-03-18T13:21:16.951Z,15.25
2023-03-18T13:24:13.905Z,12.93
2023-03-18T13:27:09.532Z,11.90
2023-03-18T13:29:46.728Z,10.88
2023-03-18T13:32:50.183Z,13.05
2023-03-18T13:35:43.453Z,15.75
2023-03-18T13:38:42.873Z,22.67
2023-03-18T13:41:54.997Z,13.88
2023-03-18T13:44:35.380Z,13.32
2023-03-18T13:47:07.541Z,14.82
2023-03-18T13:49:39.566Z,14.15
2023-03-18T13:52:30.409Z,13.13
2023-03-18T13:55:03.920Z,17.10
2023-03-18T13:57:48.849Z,12.70
2023-03-18T14:00:35.780Z,13.60
2023-03-18T14:03:17.419Z,13.80
2023-03-18T14:05:47.006Z,15.18
2023-03-18T14:08:47.084Z,16.40
2023-03-18T14:11:50.273Z,14.25
2023-03-18T14:14:58.162Z,19.20
2023-03-18T14:17:59.978Z,19.83
2023-03-18T14:20:39.479Z,19.13
2023-03-18T14:23:34.715Z,20.50
2023-03-18T14:26:07.836Z,20.95
2023-03-18T14:28:47.725Z,19.23
2023-03-18T14:31:52.113Z,18.77
2023-03-18T14:34:34.140Z,19.90
2023-03-18T14:37:57.222Z,20.63
2023-03-18T14:40:26.450Z,23.40
2023-03-18T14:43:00.804Z,20.08
2023-03-18T14:45:34.918Z,22.65
2023-03-18T14:48:16.767Z,24.25
2023-03-18T14:50:50.539Z,22.67
2023-03-18T14:53:26.698Z,22.42
2023-03-18T14:55:57.204Z,20.90
2023-03-18T14:58:28.230Z,23.27
2023-03-18T15:01:05.798Z,23.58
2023-03-18T15:03:35.634Z,20.98
2023-03-18T15:06:07.949Z,25.58
2023-03-18T15:08:48.254Z,20.90
2023-03-18T15:11:20.290Z,23.50
2023-03-18T15:13:48.631Z,21.08
2023-03-18T15:16:33.304Z,18.42
2023-03-18T15:19:05.161Z,20.00
2023-03-18T15:21:37.472Z,19.48
2023-03-18T15:24:09.356Z,19.02
2023-03-18T15:26:40.749Z,19.15
2023-03-18T15:29:28.197Z,20.85
2023-03-18T15:32:10.638Z,19.40
2023-03-18T15:34:44.089Z,16.75
2023-03-18T15:37:40.573Z,15.52
2023-03-18T15:40:29.657Z,14.98
2023-03-18T15:43:04.261Z,16.73
2023-03-18T15:45:34.120Z,17.27
2023-03-18T15:48:09.037Z,19.73
2023-03-18T15:50:51.968Z,18.80
2023-03-18T15:53:25.064Z,19.67
2023-03-18T15:55:56.590Z,18.73
2023-03-18T15:58:28.538Z,19.15
2023-03-18T16:00:58.404Z,20.25
2023-03-18T16:03:32.095Z,17.25
2023-03-18T16:06:03.044Z,18.77
2023-03-18T16:08:31.612Z,18.80
2023-03-18T16:11:05.721Z,17.88
2023-03-18T16:13:37.518Z,18.73
2023-03-18T16:16:06.771Z,20.50
2023-03-18T16:18:35.021Z,20.02
2023-03-18T16:21:05.357Z,18.83
2023-03-18T16:23:33.821Z,19.58
2023-03-18T16:26:03.076Z,19.65
2023-03-18T16:28:31.340Z,18.70
2023-03-18T16:31:00.878Z,20.52
2023-03-18T16:33:29.426Z,20.95
2023-03-18T16:35:59.882Z,17.02
2023-03-18T16:38:31.045Z,23.65
2023-03-18T16:40:59.508Z,19.75
2023-03-18T16:43:30.155Z,21.30
2023-03-18T16:46:02.874Z,23.95
2023-03-18T16:48:31.489Z,20.70
2023-03-18T16:51:02.599Z,20.75
2023-03-18T16:53:33.285Z,19.08
2023-03-18T16:56:05.500Z,21.45
2023-03-18T16:58:36.412Z,16.85
2023-03-18T17:01:07.138Z,18.67
2023-03-18T17:03:37.109Z,21.08
2023-03-18T17:06:06.729Z,17.52
2023-03-18T17:08:36.944Z,19.40
2023-03-18T17:11:07.319Z,16.63
2023-03-18T17:13:38.526Z,18.58
2023-03-18T17:16:15.269Z,20.00
2023-03-18T17:18:43.547Z,19.35
2023-03-18T17:21:13.165Z,20.75
2023-03-18T17:23:42.831Z,29.77
2023-03-18T17:26:15.778Z,23.83
2023-03-18T17:28:47.777Z,21.45
2023-03-18T17:31:17.277Z,22.42
2023-03-18T17:33:45.668Z,19.38
2023-03-18T17:36:13.933Z,19.05
2023-03-18T17:38:43.549Z,22.40
2023-03-18T17:41:20.154Z,21.75
2023-03-18T17:43:48.461Z,24.92
2023-03-18T17:46:16.729Z,23.90
2023-03-18T17:48:45.355Z,25.05
2023-03-18T17:51:17.261Z,25.42
2023-03-18T17:53:49.081Z,26.17
2023-03-18T17:56:20.173Z,25.10
2023-03-18T17:58:50.373Z,21.02
2023-03-18T18:01:22.332Z,21.33
2023-03-18T18:03:51.562Z,21.65
2023-03-18T18:06:22.833Z,24.92
2023-03-18T18:08:55.989Z,24.48
2023-03-18T18:11:27.115Z,23.90
2023-03-18T18:13:59.121Z,25.67
2023-03-18T18:16:27.665Z,25.10
2023-03-18T18:18:57.166Z,20.88
2023-03-18T18:21:26.365Z,32.15
2023-03-18T18:23:56.087Z,25.48
2023-03-18T18:26:24.444Z,27.75
2023-03-18T18:28:54.126Z,24.63
2023-03-18T18:31:23.762Z,24.77
2023-03-18T18:33:52.561Z,26.30
2023-03-18T18:36:22.564Z,24.00
2023-03-18T18:38:50.837Z,22.67
2023-03-18T18:41:20.791Z,27.77
2023-03-18T18:43:49.003Z,27.30
2023-03-18T18:46:18.274Z,26.58
2023-03-18T18:48:49.579Z,24.45
2023-03-18T18:51:21.350Z,26.88
2023-03-18T18:53:52.311Z,24.88
2023-03-18T18:56:29.015Z,24.23
2023-03-18T18:58:58.154Z,23.13
2023-03-18T19:01:26.523Z,24.73
2023-03-18T19:03:55.458Z,25.60
2023-03-18T19:06:29.159Z,27.67
2023-03-18T19:09:00.613Z,29.38
2023-03-18T19:11:30.673Z,31.88
2023-03-18T19:14:24.236Z,37.28
2023-03-18T19:16:53.584Z,34.17
2023-03-18T19:19:26.926Z,33.35
2023-03-18T19:21:55.218Z,31.40
2023-03-18T19:24:30.255Z,42.95
2023-03-18T19:27:03.035Z,42.28
2023-03-18T19:29:32.780Z,37.78
2023-03-18T19:32:01.303Z,35.28
2023-03-18T19:34:32.045Z,30.58
2023-03-18T19:37:02.537Z,34.90
2023-03-18T19:39:31.637Z,34.38
2023-03-18T19:42:01.859Z,34.78
2023-03-18T19:44:30.109Z,31.40
2023-03-18T19:47:01.001Z,30.15
2023-03-18T19:49:33.492Z,25.65
2023-03-18T19:52:02.763Z,27.77
2023-03-18T19:54:33.597Z,30.85
2023-03-18T19:57:06.738Z,30.45
2023-03-18T19:59:39.579Z,28.70
2023-03-18T20:02:22.798Z,24.13
2023-03-18T20:04:52.778Z,29.75
2023-03-18T20:07:23.304Z,33.13
2023-03-18T20:09:52.472Z,29.65
2023-03-18T20:12:30.337Z,28.92
2023-03-18T20:14:58.732Z,31.40
2023-03-18T20:17:37.204Z,31.38
2023-03-18T20:20:07.939Z,29.55
2023-03-18T20:22:40.340Z,28.90
2023-03-18T20:25:18.924Z,29.83
2023-03-18T20:27:50.421Z,33.88
2023-03-18T20:30:31.751Z,27.63
2023-03-18T20:33:03.961Z,31.92
2023-03-18T20:35:36.667Z,30.45
2023-03-18T20:38:14.143Z,36.13
2023-03-18T20:40:46.203Z,34.85
2023-03-18T20:43:17.214Z,33.17
2023-03-18T20:45:45.584Z,34.65
2023-03-18T20:48:14.243Z,35.90
2023-03-18T20:50:42.703Z,31.65
2023-03-18T20:53:18.490Z,31.40
2023-03-18T20:55:47.436Z,30.15
2023-03-18T20:58:20.319Z,29.00
2023-03-18T21:00:49.033Z,31.95
2023-03-18T21:03:25.573Z,28.80
2023-03-18T21:05:56.144Z,26.40
2023-03-18T21:08:26.535Z,24.63
2023-03-18T21:10:56.661Z,25.90
2023-03-18T21:13:30.538Z,29.23
2023-03-18T21:16:03.349Z,32.78
2023-03-18T21:18:31.714Z,28.15
2023-03-18T21:21:01.062Z,28.70
2023-03-18T21:23:32.719Z,24.38
2023-03-18T21:26:01.955Z,24.63
2023-03-18T21:28:31.809Z,25.30
2023-03-18T21:31:01.410Z,23.35
2023-03-18T21:33:32.632Z,23.85
2023-03-18T21:36:02.084Z,22.17
2023-03-18T21:38:34.774Z,25.77
2023-03-18T21:41:04.052Z,21.40
2023-03-18T21:43:37.035Z,20.70
2023-03-18T21:46:07.789Z,22.13
2023-03-18T21:48:36.121Z,23.55
2023-03-18T21:51:05.505Z,23.40
2023-03-18T21:53:34.335Z,20.88
2023-03-18T21:56:02.535Z,21.00
2023-03-18T21:58:30.757Z,23.23
2023-03-18T22:01:01.915Z,22.52
2023-03-18T22:03:31.468Z,22.25
2023-03-18T22:05:59.670Z,25.05
2023-03-18T22:08:28.111Z,22.48
2023-03-18T22:10:56.686Z,23.70
2023-03-18T22:13:27.493Z,24.88
2023-03-18T22:15:56.888Z,26.45
2023-03-18T22:18:26.537Z,27.35
2023-03-18T22:21:01.742Z,27.27
2023-03-18T22:23:32.567Z,25.67
2023-03-18T22:26:00.834Z,24.40
2023-03-18T22:28:29.251Z,25.00
2023-03-18T22:30:57.594Z,19.60
2023-03-18T22:33:30.620Z,24.40
2023-03-18T22:35:59.695Z,24.45
2023-03-18T22:38:31.680Z,21.50
2023-03-18T22:41:00.037Z,24.00
2023-03-18T22:43:32.037Z,23.27
2023-03-18T22:46:02.829Z,21.23
2023-03-18T22:48:33.546Z,21.00
2023-03-18T22:51:03.217Z,21.25
2023-03-18T22:53:36.143Z,23.52
2023-03-18T22:56:11.282Z,19.88
2023-03-18T22:58:39.912Z,22.05
2023-03-18T23:01:10.473Z,23.92
2023-03-18T23:03:40.363Z,22.23
2023-03-18T23:06:14.397Z,19.52
2023-03-18T23:08:42.694Z,22.23
2023-03-18T23:11:11.240Z,24.00
2023-03-18T23:13:42.367Z,25.42
2023-03-18T23:16:16.639Z,22.33
2023-03-18T23:18:46.309Z,27.70
2023-03-18T23:21:17.917Z,22.85
2023-03-18T23:23:46.524Z,26.50
2023-03-18T23:26:14.954Z,28.52
2023-03-18T23:28:45.431Z,20.42
2023-03-18T23:31:14.601Z,21.48
2023-03-18T23:33:43.062Z,20.95
2023-03-18T23:36:13.090Z,19.45
2023-03-18T23:38:41.740Z,17.92
2023-03-18T23:41:10.198Z,17.63
2023-03-18T23:43:38.621Z,21.17
2023-03-18T23:46:08.162Z,14.80
2023-03-18T23:48:36.759Z,15.55
2023-03-18T23:51:05.598Z,17.77
2023-03-18T23:53:35.270Z,14.32
2023-03-18T23:56:03.739Z,12.77
2023-03-18T23:58:32.004Z,12.35
